createdAt,value
2023-03-21T00:00:42.804Z,7.50
2023-03-21T00:03:09.853Z,7.20
2023-03-21T00:05:46.141Z,7.80
2023-03-21T00:08:12.974Z,5.90
2023-03-21T00:10:42.290Z,7.10
2023-03-21T00:13:13.527Z,9.30
2023-03-21T00:16:04.440Z,8.70
2023-03-21T00:18:37.190Z,8.70
2023-03-21T00:21:37.501Z,8.70
2023-03-21T00:23:52.375Z,8.10
2023-03-21T00:26:19.225Z,7.40
2023-03-21T00:28:46.063Z,8.00
2023-03-21T00:31:12.910Z,7.10
2023-03-21T00:33:40.078Z,6.70
2023-03-21T00:36:08.274Z,7.50
2023-03-21T00:38:36.452Z,7.80
2023-03-21T00:41:18.856Z,7.70
2023-03-21T00:43:52.134Z,8.00
2023-03-21T00:46:19.676Z,8.50
2023-03-21T00:48:47.630Z,9.10
2023-03-21T00:51:19.185Z,9.00
2023-03-21T00:53:46.026Z,9.80
2023-03-21T00:56:12.924Z,9.60
2023-03-21T00:58:39.679Z,10.30
2023-03-21T01:01:09.876Z,10.30
2023-03-21T01:03:42.956Z,10.50
2023-03-21T01:06:13.934Z,9.00
2023-03-21T01:08:52.386Z,10.10
2023-03-21T01:11:22.912Z,9.70
2023-03-21T01:13:56.199Z,8.20
2023-03-21T01:16:29.222Z,7.10
2023-03-21T01:18:56.848Z,7.20
2023-03-21T01:21:23.889Z,8.30
2023-03-21T01:23:50.943Z,9.80
2023-03-21T01:26:18.537Z,10.10
2023-03-21T01:28:45.788Z,8.50
2023-03-21T01:31:13.970Z,8.60
2023-03-21T01:33:41.791Z,8.40
2023-03-21T01:36:13.008Z,7.20
2023-03-21T01:38:44.687Z,5.60
2023-03-21T01:41:20.152Z,5.40
2023-03-21T01:43:48.534Z,5.80
2023-03-21T01:46:21.323Z,5.00
2023-03-21T01:49:02.574Z,3.90
2023-03-21T01:51:32.945Z,6.20
2023-03-21T01:54:00.939Z,5.20
2023-03-21T01:56:33.410Z,4.00
2023-03-21T01:59:13.495Z,5.20
2023-03-21T02:01:53.188Z,4.60
2023-03-21T02:04:28.500Z,5.70
2023-03-21T02:07:19.384Z,5.30
2023-03-21T02:09:53.708Z,6.50
2023-03-21T02:12:22.382Z,8.10
2023-03-21T02:14:50.455Z,6.90
2023-03-21T02:17:45.768Z,5.90
2023-03-21T02:20:22.314Z,4.80
2023-03-21T02:23:08.743Z,5.30
2023-03-21T02:25:48.288Z,5.80
2023-03-21T02:28:20.421Z,5.30
2023-03-21T02:31:06.986Z,4.30
2023-03-21T02:34:00.833Z,4.50
2023-03-21T02:36:30.968Z,4.30
2023-03-21T02:38:57.681Z,5.00
2023-03-21T02:41:40.169Z,6.50
2023-03-21T02:44:17.491Z,6.30
2023-03-21T02:46:51.238Z,6.10
2023-03-21T02:49:31.848Z,5.90
2023-03-21T02:52:12.189Z,4.70
2023-03-21T02:54:48.418Z,4.40
2023-03-21T02:57:20.445Z,8.80
2023-03-21T02:59:55.670Z,7.00
2023-03-21T03:02:31.331Z,7.80
2023-03-21T03:04:58.868Z,5.70
2023-03-21T03:07:41.076Z,7.70
2023-03-21T03:10:08.236Z,7.50
2023-03-21T03:12:43.340Z,7.80
2023-03-21T03:15:17.957Z,6.10
2023-03-21T03:17:53.845Z,7.30
2023-03-21T03:20:25.043Z,7.00
2023-03-21T03:23:00.045Z,7.40
2023-03-21T03:25:41.506Z,6.20
2023-03-21T03:28:09.999Z,6.70
2023-03-21T03:30:44.670Z,7.30
2023-03-21T03:33:17.608Z,7.90
2023-03-21T03:35:55.828Z,6.40
2023-03-21T03:38:27.835Z,6.80
2023-03-21T03:40:58.202Z,6.00
2023-03-21T03:43:41.230Z,5.70
2023-03-21T03:46:14.760Z,5.50
2023-03-21T03:48:55.075Z,5.30
2023-03-21T03:51:28.590Z,6.30
2023-03-21T03:54:18.974Z,6.00
2023-03-21T03:56:46.882Z,6.10
2023-03-21T03:59:19.576Z,6.60
2023-03-21T04:01:56.440Z,6.20
2023-03-21T04:04:29.594Z,5.90
2023-03-21T04:06:58.028Z,6.20
2023-03-21T04:09:40.939Z,6.30
2023-03-21T04:12:10.674Z,6.70
2023-03-21T04:14:44.508Z,7.30
2023-03-21T04:17:12.622Z,6.50
2023-03-21T04:19:39.332Z,6.30
2023-03-21T04:22:06.887Z,6.10
2023-03-21T04:24:37.817Z,5.50
2023-03-21T04:27:06.068Z,5.00
2023-03-21T04:29:39.219Z,5.20
2023-03-21T04:32:27.019Z,6.20
2023-03-21T04:35:03.491Z,5.60
2023-03-21T04:37:34.021Z,7.40
2023-03-21T04:40:06.810Z,6.60
2023-03-21T04:42:35.320Z,6.80
2023-03-21T04:45:02.580Z,6.50
2023-03-21T04:47:29.885Z,8.10
2023-03-21T04:49:57.600Z,5.00
2023-03-21T04:52:25.505Z,4.90
2023-03-21T04:54:52.702Z,8.10
2023-03-21T04:57:19.603Z,7.00
2023-03-21T04:59:46.578Z,4.50
2023-03-21T05:02:15.079Z,4.20
2023-03-21T05:04:43.410Z,4.50
2023-03-21T05:07:10.586Z,7.40
2023-03-21T05:09:37.507Z,9.40
2023-03-21T05:12:04.430Z,9.30
2023-03-21T05:14:31.691Z,9.00
2023-03-21T05:17:01.946Z,13.50
2023-03-21T05:20:04.601Z,10.70
2023-03-21T05:22:40.584Z,6.10
2023-03-21T05:25:11.830Z,6.60
2023-03-21T05:27:57.904Z,7.00
2023-03-21T05:30:26.436Z,6.50
2023-03-21T05:32:56.704Z,8.60
2023-03-21T05:35:26.392Z,8.40
2023-03-21T05:37:54.691Z,5.20
2023-03-21T05:40:22.566Z,5.40
2023-03-21T05:42:49.361Z,3.60
2023-03-21T05:45:22.068Z,3.30
2023-03-21T05:47:49.743Z,3.30
2023-03-21T05:50:17.341Z,4.80
2023-03-21T05:52:49.387Z,9.40
2023-03-21T05:55:16.192Z,12.50
2023-03-21T05:57:43.008Z,13.80
2023-03-21T06:00:18.155Z,14.70
2023-03-21T06:02:50.843Z,13.50
2023-03-21T06:05:36.813Z,17.10
2023-03-21T06:08:05.180Z,13.00
2023-03-21T06:10:32.792Z,14.20
2023-03-21T06:13:02.913Z,13.50
2023-03-21T06:15:33.444Z,13.60
2023-03-21T06:18:05.206Z,12.50
2023-03-21T06:20:32.295Z,15.00
2023-03-21T06:23:04.411Z,12.80
2023-03-21T06:25:31.467Z,14.10
2023-03-21T06:27:58.310Z,14.60
2023-03-21T06:30:25.561Z,16.40
2023-03-21T06:33:01.311Z,15.60
2023-03-21T06:35:28.075Z,15.40
2023-03-21T06:37:55.309Z,14.90
2023-03-21T06:40:22.062Z,17.60
2023-03-21T06:42:48.850Z,17.30
2023-03-21T06:45:15.831Z,17.00
2023-03-21T06:47:42.879Z,18.00
2023-03-21T06:50:16.267Z,17.60
2023-03-21T06:52:43.864Z,21.50
2023-03-21T06:55:11.190Z,20.30
2023-03-21T06:57:38.546Z,17.00
2023-03-21T07:00:08.565Z,17.30
2023-03-21T07:02:36.188Z,16.00
2023-03-21T07:05:08.799Z,20.00
2023-03-21T07:07:37.038Z,15.00
2023-03-21T07:10:04.414Z,16.90
2023-03-21T07:12:36.161Z,17.70
2023-03-21T07:15:14.406Z,19.10
2023-03-21T07:17:42.138Z,17.50
2023-03-21T07:20:09.593Z,16.00
2023-03-21T07:22:36.777Z,13.30
2023-03-21T07:25:05.666Z,16.90
2023-03-21T07:27:40.666Z,14.00
2023-03-21T07:30:09.173Z,16.20
2023-03-21T07:32:38.184Z,15.30
2023-03-21T07:35:07.011Z,16.00
2023-03-21T07:37:34.214Z,14.50
2023-03-21T07:40:01.974Z,18.70
2023-03-21T07:45:02.515Z,15.70
2023-03-21T07:47:33.021Z,17.80
2023-03-21T07:49:59.757Z,19.10
2023-03-21T07:52:27.545Z,18.00
2023-03-21T07:54:54.413Z,20.20
2023-03-21T07:57:21.115Z,19.40
2023-03-21T07:59:48.077Z,16.50
2023-03-21T08:02:16.635Z,18.10
2023-03-21T08:04:44.220Z,20.60
2023-03-21T08:07:11.674Z,19.60
2023-03-21T08:09:38.414Z,18.70
2023-03-21T08:12:06.178Z,17.30
2023-03-21T08:14:33.426Z,15.30
2023-03-21T08:17:00.490Z,22.00
2023-03-21T08:19:27.930Z,19.70
2023-03-21T08:21:54.819Z,19.20
2023-03-21T08:24:21.621Z,16.50
2023-03-21T08:26:48.464Z,15.30
2023-03-21T08:29:15.338Z,20.60
2023-03-21T08:31:42.553Z,18.90
2023-03-21T08:34:09.597Z,14.40
2023-03-21T08:36:36.962Z,16.90
2023-03-21T08:39:07.588Z,16.60
2023-03-21T08:41:35.227Z,17.20
2023-03-21T08:44:02.747Z,16.70
2023-03-21T08:46:29.836Z,17.90
2023-03-21T08:48:56.574Z,17.20
2023-03-21T08:51:23.436Z,16.10
2023-03-21T08:53:53.759Z,16.20
2023-03-21T08:56:20.616Z,17.60
2023-03-21T08:58:47.863Z,15.30
2023-03-21T09:01:15.948Z,16.80
2023-03-21T09:03:43.389Z,16.80
2023-03-21T09:06:12.469Z,15.20
2023-03-21T09:08:40.158Z,15.40
2023-03-21T09:11:06.972Z,13.80
2023-03-21T09:13:33.941Z,15.00
2023-03-21T09:16:01.572Z,18.40
2023-03-21T09:18:49.110Z,15.20
2023-03-21T09:21:18.594Z,13.70
2023-03-21T09:23:46.411Z,12.60
2023-03-21T09:26:13.919Z,11.40
2023-03-21T09:28:40.917Z,11.80
2023-03-21T09:31:11.462Z,10.40
2023-03-21T09:33:40.741Z,10.50
2023-03-21T09:36:13.136Z,12.30
2023-03-21T09:38:45.730Z,7.70
2023-03-21T09:41:12.511Z,6.50
2023-03-21T09:43:58.207Z,6.50
2023-03-21T09:46:31.108Z,5.80
2023-03-21T09:49:10.803Z,6.10
2023-03-21T09:51:41.373Z,8.30
2023-03-21T09:54:13.621Z,6.90
2023-03-21T09:56:41.292Z,6.10
2023-03-21T09:59:09.372Z,12.50
2023-03-21T10:01:42.105Z,9.60
2023-03-21T10:04:12.417Z,6.50
2023-03-21T10:06:41.279Z,4.60
2023-03-21T10:09:23.099Z,5.10
2023-03-21T10:11:59.002Z,5.60
2023-03-21T10:14:29.910Z,4.20
2023-03-21T10:16:59.034Z,6.10
2023-03-21T10:19:28.144Z,6.10
2023-03-21T10:22:03.849Z,5.10
2023-03-21T10:24:33.507Z,4.00
2023-03-21T10:27:02.172Z,3.90
2023-03-21T10:29:33.173Z,4.20
2023-03-21T10:32:00.624Z,3.90
2023-03-21T10:34:38.096Z,4.40
2023-03-21T10:37:05.900Z,4.00
2023-03-21T10:39:32.769Z,3.50
2023-03-21T10:41:59.507Z,3.40
2023-03-21T10:44:31.394Z,3.90
2023-03-21T10:47:05.783Z,3.50
2023-03-21T10:49:40.211Z,3.30
2023-03-21T10:52:08.683Z,3.90
2023-03-21T10:54:38.564Z,3.50
2023-03-21T10:57:10.169Z,4.10
2023-03-21T10:59:40.041Z,3.00
2023-03-21T11:02:07.243Z,3.30
2023-03-21T11:04:34.069Z,3.00
2023-03-21T11:07:07.697Z,3.50
2023-03-21T11:10:03.944Z,3.40
2023-03-21T11:12:37.444Z,3.40
2023-03-21T11:15:23.237Z,3.10
2023-03-21T11:17:50.002Z,3.40
2023-03-21T11:20:19.293Z,3.10
2023-03-21T11:22:46.477Z,2.70
2023-03-21T11:25:36.726Z,2.90
2023-03-21T11:28:16.270Z,3.10
2023-03-21T11:30:50.856Z,3.10
2023-03-21T11:33:18.863Z,3.50
2023-03-21T11:35:58.027Z,3.30
2023-03-21T11:38:27.450Z,2.80
2023-03-21T11:40:57.149Z,2.50
2023-03-21T11:43:27.066Z,2.60
2023-03-21T11:46:13.618Z,2.90
2023-03-21T11:48:44.360Z,3.00
2023-03-21T11:51:17.505Z,3.30
2023-03-21T11:54:04.441Z,2.40
2023-03-21T11:56:34.524Z,2.20
2023-03-21T11:59:04.711Z,2.60
2023-03-21T12:01:32.472Z,3.00
2023-03-21T12:04:18.685Z,2.90
2023-03-21T12:06:48.932Z,2.20
2023-03-21T12:09:23.013Z,2.50
2023-03-21T12:11:58.347Z,2.10
2023-03-21T12:14:37.505Z,2.20
2023-03-21T12:17:14.800Z,2.00
2023-03-21T12:19:53.326Z,2.10
2023-03-21T12:22:28.622Z,2.10
2023-03-21T12:24:56.751Z,2.00
2023-03-21T12:27:23.435Z,2.00
2023-03-21T12:29:57.267Z,1.30
2023-03-21T12:32:39.275Z,1.90
2023-03-21T12:35:31.928Z,1.40
2023-03-21T12:38:14.145Z,1.40
2023-03-21T12:40:56.516Z,1.60
2023-03-21T12:43:29.299Z,1.80
2023-03-21T12:45:59.629Z,1.80
2023-03-21T12:48:41.904Z,1.50
2023-03-21T12:51:13.593Z,2.30
2023-03-21T12:53:48.260Z,2.80
2023-03-21T12:56:21.207Z,2.50
2023-03-21T12:59:06.680Z,1.90
2023-03-21T13:01:36.384Z,1.70
2023-03-21T13:04:09.411Z,2.50
2023-03-21T13:06:38.069Z,2.00
2023-03-21T13:09:28.361Z,2.40
2023-03-21T13:11:59.804Z,2.20
2023-03-21T13:14:34.433Z,2.40
2023-03-21T13:17:07.415Z,1.80
2023-03-21T13:19:41.419Z,4.00
2023-03-21T13:22:14.374Z,6.00
2023-03-21T13:24:44.064Z,2.30
2023-03-21T13:27:30.012Z,2.30
2023-03-21T13:30:06.833Z,2.30
2023-03-21T13:32:43.729Z,1.80
2023-03-21T13:35:13.891Z,2.20
2023-03-21T13:37:42.233Z,1.20
2023-03-21T13:40:21.286Z,1.80
2023-03-21T13:42:52.022Z,1.70
2023-03-21T13:45:31.358Z,1.50
2023-03-21T13:47:59.887Z,1.10
2023-03-21T13:50:27.507Z,1.60
2023-03-21T13:53:03.459Z,1.20
2023-03-21T13:55:38.344Z,0.90
2023-03-21T13:58:24.096Z,1.30
2023-03-21T14:01:09.393Z,1.00
2023-03-21T14:03:36.416Z,1.10
2023-03-21T14:06:03.568Z,1.40
2023-03-21T14:08:37.546Z,1.40
2023-03-21T14:11:07.156Z,1.30
2023-03-21T14:13:37.976Z,1.10
2023-03-21T14:16:13.142Z,1.00
2023-03-21T14:18:55.006Z,1.20
2023-03-21T14:21:24.224Z,1.30
2023-03-21T14:23:58.717Z,1.50
2023-03-21T14:26:26.953Z,0.90
2023-03-21T14:28:53.775Z,1.00
2023-03-21T14:31:21.478Z,1.10
2023-03-21T14:33:54.206Z,1.30
2023-03-21T14:36:24.196Z,1.10
2023-03-21T14:38:56.055Z,16.50
2023-03-21T14:41:26.215Z,1.50
2023-03-21T14:44:04.328Z,1.10
2023-03-21T14:46:31.414Z,1.00
2023-03-21T14:49:09.952Z,0.90
2023-03-21T14:51:36.978Z,1.50
2023-03-21T14:54:03.775Z,1.20
2023-03-21T14:56:30.754Z,1.40
2023-03-21T14:58:58.119Z,1.20
2023-03-21T15:01:34.724Z,1.10
2023-03-21T15:04:04.385Z,1.40
2023-03-21T15:06:32.338Z,3.60
2023-03-21T15:09:00.934Z,1.40
2023-03-21T15:11:32.863Z,1.50
2023-03-21T15:14:01.452Z,1.70
2023-03-21T15:16:28.550Z,1.40
2023-03-21T15:18:56.170Z,1.00
2023-03-21T15:21:23.560Z,1.30
2023-03-21T15:23:53.571Z,1.40
2023-03-21T15:26:22.012Z,0.90
2023-03-21T15:28:50.902Z,1.20
2023-03-21T15:31:18.816Z,1.30
2023-03-21T15:33:47.083Z,1.40
2023-03-21T15:36:19.029Z,1.00
2023-03-21T15:38:49.118Z,1.10
2023-03-21T15:41:21.924Z,0.90
2023-03-21T15:43:54.125Z,0.80
2023-03-21T15:46:33.267Z,0.80
2023-03-21T15:49:08.616Z,1.00
2023-03-21T15:51:36.353Z,1.30
2023-03-21T15:54:03.614Z,1.10
2023-03-21T15:56:34.842Z,0.90
2023-03-21T15:59:03.795Z,0.80
2023-03-21T16:01:34.898Z,0.60
2023-03-21T16:04:09.971Z,1.30
2023-03-21T16:06:38.418Z,3.80
2023-03-21T16:09:11.048Z,6.90
2023-03-21T16:11:41.164Z,1.30
2023-03-21T16:14:08.182Z,1.80
2023-03-21T16:16:35.282Z,5.20
2023-03-21T16:19:02.908Z,1.00
2023-03-21T16:21:31.161Z,2.50
2023-03-21T16:24:00.738Z,5.50
2023-03-21T16:26:29.788Z,1.40
2023-03-21T16:28:57.389Z,1.30
2023-03-21T16:31:25.447Z,1.80
2023-03-21T16:33:52.787Z,2.80
2023-03-21T16:36:23.370Z,2.70
2023-03-21T16:38:52.778Z,1.80
2023-03-21T16:41:20.596Z,1.10
2023-03-21T16:43:47.503Z,0.90
2023-03-21T16:46:15.043Z,0.90
2023-03-21T16:48:43.036Z,1.00
2023-03-21T16:51:14.179Z,0.90
2023-03-21T16:53:40.949Z,1.00
2023-03-21T16:56:13.815Z,1.10
2023-03-21T16:58:40.555Z,1.00
2023-03-21T17:01:11.621Z,0.90
2023-03-21T17:03:39.884Z,1.10
2023-03-21T17:06:06.980Z,1.40
2023-03-21T17:08:33.958Z,1.20
2023-03-21T17:11:02.748Z,0.70
2023-03-21T17:13:30.720Z,0.70
2023-03-21T17:15:57.563Z,0.70
2023-03-21T17:18:24.406Z,0.80
2023-03-21T17:20:51.246Z,0.80
2023-03-21T17:23:18.084Z,0.60
2023-03-21T17:25:44.782Z,0.70
2023-03-21T17:28:11.563Z,1.00
2023-03-21T17:30:40.523Z,0.40
2023-03-21T17:33:07.924Z,0.90
2023-03-21T17:35:34.770Z,1.40
2023-03-21T17:38:01.596Z,1.10
2023-03-21T17:40:29.477Z,0.80
2023-03-21T17:42:56.928Z,0.50
2023-03-21T17:45:23.963Z,1.20
2023-03-21T17:47:51.428Z,1.10
2023-03-21T17:50:26.026Z,1.20
2023-03-21T17:52:52.900Z,1.10
2023-03-21T17:55:21.380Z,1.00
2023-03-21T17:57:49.249Z,1.10
2023-03-21T18:00:19.815Z,1.40
2023-03-21T18:02:47.223Z,2.30
2023-03-21T18:05:14.092Z,1.60
2023-03-21T18:08:08.931Z,2.10
2023-03-21T18:10:30.697Z,1.30
2023-03-21T18:12:58.561Z,1.40
2023-03-21T18:15:29.660Z,1.60
2023-03-21T18:17:57.659Z,1.40
2023-03-21T18:20:49.868Z,1.80
2023-03-21T18:23:14.642Z,1.70
2023-03-21T18:25:41.926Z,1.70
2023-03-21T18:28:11.879Z,2.40
2023-03-21T18:31:00.410Z,1.50
2023-03-21T18:33:27.642Z,1.70
2023-03-21T18:35:58.989Z,1.60
2023-03-21T18:38:27.559Z,1.60
2023-03-21T18:40:54.866Z,1.40
2023-03-21T18:46:08.837Z,2.00
2023-03-21T18:48:35.963Z,2.90
2023-03-21T18:51:03.369Z,3.50
2023-03-21T18:53:30.109Z,3.90
2023-03-21T18:55:57.565Z,4.10
2023-03-21T18:58:25.408Z,4.20
2023-03-21T19:00:53.961Z,5.00
2023-03-21T19:03:35.118Z,5.10
2023-03-21T19:06:04.914Z,5.30
2023-03-21T19:08:32.445Z,5.20
2023-03-21T19:11:03.705Z,4.50
2023-03-21T19:13:33.405Z,5.10
2023-03-21T19:16:02.458Z,5.10
2023-03-21T19:21:19.291Z,4.10
2023-03-21T19:26:34.104Z,3.70
2023-03-21T19:29:01.754Z,2.80
2023-03-21T19:31:28.635Z,3.00
2023-03-21T19:33:55.803Z,4.10
2023-03-21T19:36:23.577Z,3.90
2023-03-21T19:38:51.163Z,4.00
2023-03-21T19:41:19.096Z,3.80
2023-03-21T19:43:54.136Z,3.70
2023-03-21T19:46:28.256Z,4.20
2023-03-21T19:48:56.518Z,3.30
2023-03-21T19:51:28.792Z,3.80
2023-03-21T19:53:56.393Z,3.10
2023-03-21T19:56:26.757Z,3.50
2023-03-21T19:58:55.180Z,3.90
2023-03-21T20:01:22.505Z,3.80
2023-03-21T20:03:49.575Z,4.00
2023-03-21T20:06:16.927Z,4.50
2023-03-21T20:09:13.710Z,4.50
2023-03-21T20:11:31.103Z,4.50
2023-03-21T20:13:59.803Z,4.30
2023-03-21T20:16:34.165Z,3.80
2023-03-21T20:19:01.864Z,48.00
2023-03-21T20:21:34.874Z,62.20
2023-03-21T20:24:07.427Z,44.60
2023-03-21T20:26:34.473Z,46.80
2023-03-21T20:29:31.417Z,33.80
2023-03-21T20:31:50.281Z,29.00
2023-03-21T20:34:18.248Z,24.40
2023-03-21T20:36:45.087Z,17.00
2023-03-21T20:39:12.040Z,9.40
2023-03-21T20:41:38.792Z,8.10
2023-03-21T20:44:39.469Z,6.80
2023-03-21T20:46:53.878Z,9.70
2023-03-21T20:49:23.075Z,11.30
2023-03-21T20:54:37.738Z,11.40
2023-03-21T20:57:08.062Z,13.40
2023-03-21T20:59:35.515Z,13.10
2023-03-21T21:02:03.388Z,12.80
2023-03-21T21:04:52.958Z,12.40
2023-03-21T21:07:20.585Z,10.00
2023-03-21T21:09:48.306Z,12.80
2023-03-21T21:12:16.594Z,13.00
2023-03-21T21:14:43.959Z,11.80
2023-03-21T21:19:57.979Z,12.50
2023-03-21T21:22:24.709Z,10.30
2023-03-21T21:24:51.663Z,11.10
2023-03-21T21:27:18.546Z,8.20
2023-03-21T21:29:47.891Z,8.70
2023-03-21T21:32:17.305Z,8.60
2023-03-21T21:34:44.357Z,8.20
2023-03-21T21:37:11.205Z,6.80
2023-03-21T21:39:38.863Z,7.50
2023-03-21T21:42:05.715Z,7.60
2023-03-21T21:44:32.555Z,7.00
2023-03-21T21:46:59.480Z,7.10
2023-03-21T21:49:27.251Z,6.40
2023-03-21T21:51:54.103Z,5.60
2023-03-21T21:54:20.950Z,6.10
2023-03-21T21:56:54.263Z,5.80
2023-03-21T21:59:22.358Z,5.60
2023-03-21T22:01:51.515Z,4.60
2023-03-21T22:04:28.019Z,3.80
2023-03-21T22:06:55.633Z,3.90
2023-03-21T22:09:22.999Z,3.70
2023-03-21T22:11:49.932Z,3.70
2023-03-21T22:14:16.896Z,4.00
2023-03-21T22:16:44.542Z,7.00
2023-03-21T22:19:11.683Z,8.20
2023-03-21T22:21:38.397Z,6.50
2023-03-21T22:24:05.705Z,6.70
2023-03-21T22:26:33.914Z,7.40
2023-03-21T22:29:01.719Z,6.60
2023-03-21T22:31:28.845Z,8.20
2023-03-21T22:33:56.225Z,9.20
2023-03-21T22:36:23.090Z,9.20
2023-03-21T22:38:49.916Z,9.40
2023-03-21T22:41:16.615Z,9.00
2023-03-21T22:43:43.276Z,8.30
2023-03-21T22:46:10.099Z,9.00
2023-03-21T22:48:37.119Z,8.70
2023-03-21T22:51:04.331Z,10.20
2023-03-21T22:53:31.601Z,10.80
2023-03-21T22:55:58.423Z,11.90
2023-03-21T22:58:25.268Z,12.10
2023-03-21T23:00:52.180Z,14.00
2023-03-21T23:03:19.155Z,13.90
2023-03-21T23:05:45.991Z,12.60
2023-03-21T23:08:13.159Z,12.50
2023-03-21T23:10:41.481Z,12.50
2023-03-21T23:13:08.569Z,10.50
2023-03-21T23:15:35.550Z,9.00
2023-03-21T23:18:02.660Z,8.60
2023-03-21T23:20:29.506Z,8.50
2023-03-21T23:22:56.343Z,8.00
2023-03-21T23:25:25.259Z,8.30
2023-03-21T23:27:52.061Z,8.00
2023-03-21T23:30:19.019Z,8.90
2023-03-21T23:32:45.972Z,9.10
2023-03-21T23:35:13.235Z,9.30
2023-03-21T23:37:42.659Z,7.50
2023-03-21T23:40:10.801Z,8.60
2023-03-21T23:42:37.645Z,8.60
2023-03-21T23:45:04.886Z,8.00
2023-03-21T23:47:31.732Z,8.30
2023-03-21T23:49:58.436Z,9.20
2023-03-21T23:52:25.541Z,10.50
2023-03-21T23:54:52.469Z,10.10
2023-03-21T23:57:19.519Z,10.00
2023-03-21T23:59:47.256Z,10.10
